Time;durP1;ratioP1;P1;durP2;ratioP2;P2;SDS_P1;SDS_P2;PMS_P1;PMS_P2;Temp;Humidity;BMP_temperature;BMP_pressure;BME280_temperature;BME280_humidity;BME280_pressure;Samples;Min_cycle;Max_cycle;Signal;HPM_P1;HPM_P2
2023/01/06 00:01:05;;;;;;;0.40;0.23;;;;;;;8.25;100.00;100666.91;5073675;28;20174;-77
2023/01/06 00:03:31;;;;;;;0.00;0.00;;;;;;;8.23;100.00;100666.34;5073038;28;20198;-77
2023/01/06 00:05:59;;;;;;;1.20;0.83;;;;;;;8.24;100.00;100665.25;5073298;28;20205;-76
2023/01/06 00:08:25;;;;;;;1.37;1.27;;;;;;;8.24;100.00;100659.00;5073558;28;20171;-77
2023/01/06 00:10:50;;;;;;;0.00;0.00;;;;;;;8.21;100.00;100654.94;5073411;28;20648;-77
2023/01/06 00:13:15;;;;;;;1.30;1.23;;;;;;;8.30;100.00;100653.22;5073237;28;20174;-75
2023/01/06 00:15:41;;;;;;;0.00;0.00;;;;;;;8.20;100.00;100641.63;5073421;28;20636;-76
2023/01/06 00:18:06;;;;;;;1.60;1.50;;;;;;;8.29;100.00;100650.78;5073011;28;20198;-75
2023/01/06 00:20:33;;;;;;;0.07;0.07;;;;;;;8.34;100.00;100648.03;5073148;28;20174;-77
2023/01/06 00:22:58;;;;;;;1.87;1.77;;;;;;;8.32;100.00;100651.00;5073151;28;20265;-77
2023/01/06 00:25:23;;;;;;;0.20;0.20;;;;;;;8.32;100.00;100645.56;5073301;28;20261;-77
2023/01/06 00:27:49;;;;;;;1.37;1.27;;;;;;;8.33;100.00;100651.81;5073088;28;20210;-77
2023/01/06 00:30:14;;;;;;;0.00;0.00;;;;;;;8.32;100.00;100642.03;5073073;28;20224;-78
2023/01/06 00:32:39;;;;;;;0.00;0.00;;;;;;;8.28;100.00;100649.16;5072538;28;20171;-77
2023/01/06 00:35:05;;;;;;;0.07;0.07;;;;;;;8.31;100.00;100643.94;5072331;28;20175;-77
2023/01/06 00:37:30;;;;;;;0.13;0.10;;;;;;;8.35;100.00;100642.28;5072892;28;20755;-77
2023/01/06 00:39:55;;;;;;;0.90;0.60;;;;;;;8.31;100.00;100629.53;5072899;28;20253;-78
2023/01/06 00:42:21;;;;;;;13.97;2.67;;;;;;;8.29;100.00;100637.97;5072757;28;20177;-77
2023/01/06 00:44:46;;;;;;;0.47;0.30;;;;;;;8.30;100.00;100630.63;5072657;28;20579;-78
2023/01/06 00:47:13;;;;;;;0.00;0.00;;;;;;;8.27;100.00;100632.03;5072688;28;20700;-77
2023/01/06 00:49:38;;;;;;;0.13;0.13;;;;;;;8.26;100.00;100624.97;5072748;28;20170;-77
2023/01/06 00:52:04;;;;;;;0.00;0.00;;;;;;;8.29;100.00;100629.00;5072987;28;20182;-77
2023/01/06 00:54:29;;;;;;;0.23;0.23;;;;;;;8.30;100.00;100626.00;5072425;28;20170;-77
2023/01/06 00:56:55;;;;;;;0.00;0.00;;;;;;;8.29;100.00;100624.38;5072700;28;20269;-77
2023/01/06 00:59:22;;;;;;;0.43;0.43;;;;;;;8.28;100.00;100620.03;5072531;28;20526;-76
2023/01/06 01:01:51;;;;;;;0.00;0.00;;;;;;;8.27;100.00;100617.59;5072562;28;20174;-77
2023/01/06 01:04:17;;;;;;;0.20;0.20;;;;;;;8.32;100.00;100623.78;5072162;28;20588;-77
2023/01/06 01:06:43;;;;;;;0.00;0.00;;;;;;;8.25;100.00;100617.91;5072626;28;20202;-77
2023/01/06 01:09:15;;;;;;;1.20;1.10;;;;;;;8.29;100.00;100620.84;5072267;28;20186;-77
2023/01/06 01:14:24;;;;;;;0.80;0.80;;;;;;;8.32;100.00;100634.66;5072220;28;20192;-77
2023/01/06 01:16:49;;;;;;;0.97;0.87;;;;;;;8.37;100.00;100630.28;5072428;28;20247;-77
2023/01/06 01:19:15;;;;;;;0.73;0.73;;;;;;;8.34;100.00;100623.53;5072185;28;20652;-77
2023/01/06 01:21:41;;;;;;;0.30;0.30;;;;;;;8.37;100.00;100625.66;5072167;28;20202;-77
2023/01/06 01:24:07;;;;;;;1.63;1.50;;;;;;;8.39;100.00;100631.63;5071817;28;20205;-76
2023/01/06 01:26:33;;;;;;;1.07;1.07;;;;;;;8.40;100.00;100627.81;5072335;28;20226;-77
2023/01/06 01:28:59;;;;;;;0.43;0.43;;;;;;;8.42;100.00;100627.50;5072151;28;20221;-77
2023/01/06 01:31:24;;;;;;;0.63;0.47;;;;;;;8.43;100.00;100631.84;5071924;28;20645;-77
2023/01/06 01:33:49;;;;;;;0.20;0.20;;;;;;;8.45;100.00;100629.66;5071956;28;20440;-77
2023/01/06 01:36:17;;;;;;;2.43;1.67;;;;;;;8.45;100.00;100622.28;5071955;28;20188;-78
2023/01/06 01:38:42;;;;;;;0.30;0.30;;;;;;;8.46;100.00;100628.53;5072275;28;20202;-77
2023/01/06 01:41:13;;;;;;;0.60;0.60;;;;;;;8.47;100.00;100622.81;5071591;28;20277;-77
2023/01/06 01:43:48;;;;;;;0.00;0.00;;;;;;;8.46;100.00;100613.03;5071528;28;20709;-77
2023/01/06 01:46:18;;;;;;;0.00;0.00;;;;;;;8.50;100.00;100619.50;5071337;28;20206;-76
2023/01/06 01:48:44;;;;;;;0.30;0.30;;;;;;;8.49;100.00;100614.34;5071654;28;20241;-77
2023/01/06 01:51:13;;;;;;;0.00;0.00;;;;;;;8.51;100.00;100607.50;5071544;28;20212;-76
2023/01/06 01:53:44;;;;;;;0.83;0.83;;;;;;;8.51;100.00;100604.78;5071180;28;20265;-76
2023/01/06 01:56:12;;;;;;;0.00;0.00;;;;;;;8.50;100.00;100607.78;5071452;28;20256;-77
2023/01/06 01:58:43;;;;;;;1.87;0.97;;;;;;;8.49;100.00;100606.16;5071396;28;20271;-77
2023/01/06 02:01:10;;;;;;;0.83;0.63;;;;;;;8.48;100.00;100610.81;5071355;28;20186;-77
2023/01/06 02:03:39;;;;;;;0.20;0.20;;;;;;;8.48;100.00;100607.28;5071127;28;20189;-76
2023/01/06 02:06:11;;;;;;;0.00;0.00;;;;;;;8.53;100.00;100596.31;5071012;28;20202;-76
2023/01/06 02:09:08;;;;;;;0.07;0.07;;;;;;;8.55;100.00;100602.28;5071274;28;20415;-77
2023/01/06 02:11:35;;;;;;;0.57;0.57;;;;;;;8.56;100.00;100590.28;5056324;28;20654;-78
2023/01/06 02:14:15;;;;;;;0.00;0.00;;;;;;;8.55;100.00;100586.75;5070860;28;20332;-76
2023/01/06 02:17:09;;;;;;;1.90;1.73;;;;;;;8.54;100.00;100574.25;5071343;28;20174;-76
2023/01/06 02:20:03;;;;;;;1.20;1.07;;;;;;;8.55;100.00;100573.16;5071076;28;20185;-78
2023/01/06 02:22:57;;;;;;;1.60;1.23;;;;;;;8.54;100.00;100576.16;5070774;28;20189;-76
2023/01/06 02:25:58;;;;;;;7.73;1.23;;;;;;;8.55;100.00;100578.59;5070914;28;20194;-77
2023/01/06 02:28:58;;;;;;;0.33;0.33;;;;;;;8.57;100.00;100579.09;5054343;28;20194;-76
2023/01/06 02:32:18;;;;;;;0.77;0.77;;;;;;;8.61;100.00;100582.84;5070915;28;20189;-77
2023/01/06 02:35:11;;;;;;;0.20;0.20;;;;;;;8.63;100.00;100588.81;5027982;28;20227;-77
2023/01/06 02:38:08;;;;;;;3.17;1.47;;;;;;;8.67;100.00;100580.84;5070522;28;20265;-77
2023/01/06 02:40:56;;;;;;;0.00;0.00;;;;;;;8.68;100.00;100587.94;5070606;28;20185;-77
2023/01/06 02:43:32;;;;;;;0.40;0.40;;;;;;;8.69;100.00;100586.84;5070377;28;20292;-78
2023/01/06 02:46:12;;;;;;;0.83;0.50;;;;;;;8.73;100.00;100576.16;5070360;28;20234;-76
2023/01/06 02:49:07;;;;;;;0.17;0.17;;;;;;;8.74;100.00;100567.69;5070605;28;20197;-76
2023/01/06 02:51:56;;;;;;;0.13;0.13;;;;;;;8.76;100.00;100570.91;5070408;28;20202;-77
2023/01/06 02:54:27;;;;;;;0.30;0.30;;;;;;;8.78;100.00;100567.88;5070287;28;20170;-77
2023/01/06 02:57:15;;;;;;;0.83;0.57;;;;;;;8.79;100.00;100566.78;5069870;28;20174;-77
2023/01/06 03:00:24;;;;;;;0.33;0.33;;;;;;;8.80;100.00;100562.94;5070395;28;20630;-77
2023/01/06 03:02:57;;;;;;;0.80;0.23;;;;;;;8.81;100.00;100559.94;5069560;28;20187;-76
2023/01/06 03:05:24;;;;;;;17.47;1.33;;;;;;;8.84;100.00;100566.72;5070345;28;20174;-77
2023/01/06 03:07:50;;;;;;;0.00;0.00;;;;;;;8.85;100.00;100562.88;5070268;28;20210;-76
2023/01/06 03:10:18;;;;;;;0.43;0.43;;;;;;;8.84;100.00;100555.81;5070685;28;20170;-76
2023/01/06 03:13:01;;;;;;;0.80;0.77;;;;;;;8.84;100.00;100547.66;5069822;28;20183;-77
2023/01/06 03:15:26;;;;;;;0.70;0.70;;;;;;;8.81;100.00;100549.03;5070331;28;20182;-77
2023/01/06 03:17:52;;;;;;;1.53;0.87;;;;;;;8.80;100.00;100536.50;5070227;28;20637;-77
2023/01/06 03:20:18;;;;;;;5.60;0.83;;;;;;;8.81;100.00;100532.69;5070179;28;20178;-77
2023/01/06 03:22:44;;;;;;;3.07;0.30;;;;;;;8.82;100.00;100522.59;5069989;28;20167;-78
2023/01/06 03:25:09;;;;;;;0.00;0.00;;;;;;;8.84;100.00;100525.84;5070119;28;20262;-77
2023/01/06 03:27:35;;;;;;;0.93;0.20;;;;;;;8.84;100.00;100525.84;5069919;28;20205;-77
2023/01/06 03:30:05;;;;;;;0.30;0.27;;;;;;;8.88;100.00;100518.69;5070079;28;20181;-77
2023/01/06 03:32:39;;;;;;;6.23;0.50;;;;;;;8.89;100.00;100523.03;5069958;28;20186;-75
2023/01/06 03:35:20;;;;;;;0.00;0.00;;;;;;;8.91;100.00;100515.38;5070047;28;20174;-76
2023/01/06 03:38:01;;;;;;;1.17;0.87;;;;;;;8.94;100.00;100520.22;5069899;28;20178;-77
2023/01/06 03:40:34;;;;;;;0.53;0.53;;;;;;;8.94;100.00;100520.22;5069995;28;20172;-77
2023/01/06 03:43:12;;;;;;;0.37;0.37;;;;;;;8.94;100.00;100512.84;5069669;28;20269;-77
2023/01/06 03:45:37;;;;;;;0.20;0.20;;;;;;;8.96;100.00;100526.16;5069948;28;20174;-77
2023/01/06 03:48:30;;;;;;;0.50;0.50;;;;;;;9.01;100.00;100519.84;5069999;28;20196;-77
2023/01/06 03:51:23;;;;;;;0.70;0.43;;;;;;;9.01;100.00;100514.41;5069842;28;20228;-77
2023/01/06 03:54:08;;;;;;;0.60;0.50;;;;;;;9.00;100.00;100510.06;5069706;28;20545;-77
2023/01/06 03:56:50;;;;;;;3.67;0.47;;;;;;;8.99;100.00;100506.53;5069695;28;20187;-77
2023/01/06 03:59:26;;;;;;;0.70;0.20;;;;;;;8.99;100.00;100503.00;5069816;28;20384;-78
2023/01/06 04:01:51;;;;;;;1.90;0.57;;;;;;;9.02;100.00;100499.66;5069842;28;20253;-77
2023/01/06 04:04:18;;;;;;;0.10;0.10;;;;;;;9.05;100.00;100497.13;5069346;28;20269;-76
2023/01/06 04:06:43;;;;;;;0.60;0.60;;;;;;;9.08;100.00;100503.91;5069634;28;20707;-77
2023/01/06 04:09:09;;;;;;;0.00;0.00;;;;;;;9.11;100.00;100492.41;5072582;28;20190;-78
2023/01/06 04:14:18;;;;;;;0.20;0.20;;;;;;;9.16;100.00;100497.78;5073434;28;20570;-77
2023/01/06 04:16:43;;;;;;;0.43;0.37;;;;;;;9.20;100.00;100502.31;5073354;28;20245;-77
2023/01/06 04:19:08;;;;;;;0.50;0.50;;;;;;;9.16;100.00;100503.22;5073175;28;20174;-78
2023/01/06 04:21:33;;;;;;;0.30;0.30;;;;;;;9.17;100.00;100491.22;5073722;28;20174;-77
2023/01/06 04:23:59;;;;;;;0.27;0.27;;;;;;;9.19;100.00;100495.25;5073134;28;20253;-77
2023/01/06 04:26:24;;;;;;;2.37;0.30;;;;;;;9.16;100.00;100487.69;5073140;28;20252;-78
2023/01/06 04:28:50;;;;;;;0.30;0.17;;;;;;;9.21;100.00;100484.84;5073150;28;20202;-76
2023/01/06 04:31:15;;;;;;;0.00;0.00;;;;;;;9.18;100.00;100482.72;5073044;28;20434;-78
2023/01/06 04:33:40;;;;;;;0.00;0.00;;;;;;;9.23;100.00;100476.38;5072832;28;20681;-77
2023/01/06 04:36:07;;;;;;;0.07;0.07;;;;;;;9.24;100.00;100472.53;5072881;28;20499;-77
2023/01/06 04:38:33;;;;;;;0.00;0.00;;;;;;;9.30;100.00;100482.25;5073197;28;20174;-77
2023/01/06 04:40:58;;;;;;;0.00;0.00;;;;;;;9.19;100.00;100467.19;5072872;28;20185;-77
2023/01/06 04:43:23;;;;;;;0.03;0.03;;;;;;;9.12;100.00;100466.78;5072644;28;20178;-78
2023/01/06 04:45:49;;;;;;;0.20;0.20;;;;;;;9.24;100.00;100469.81;5072688;28;20174;-76
2023/01/06 04:48:14;;;;;;;0.00;0.00;;;;;;;9.21;100.00;100460.31;5072841;28;20174;-77
2023/01/06 04:50:39;;;;;;;0.00;0.00;;;;;;;9.29;100.00;100461.53;5072724;28;20171;-76
2023/01/06 04:53:06;;;;;;;0.00;0.00;;;;;;;9.24;100.00;100459.69;5072449;28;20552;-76
2023/01/06 04:55:31;;;;;;;2.33;1.13;;;;;;;9.24;100.00;100459.69;5072605;28;20242;-77
2023/01/06 04:57:56;;;;;;;0.30;0.30;;;;;;;9.29;100.00;100463.47;5072835;28;20273;-78
2023/01/06 05:00:22;;;;;;;0.47;0.47;;;;;;;9.30;100.00;100462.34;5072761;28;20182;-77
2023/01/06 05:02:47;;;;;;;0.00;0.00;;;;;;;9.30;100.00;100451.44;5072159;28;20526;-77
2023/01/06 05:05:14;;;;;;;0.10;0.10;;;;;;;9.28;100.00;100456.41;5072594;28;20616;-77
2023/01/06 05:07:39;;;;;;;0.10;0.10;;;;;;;9.29;100.00;100452.56;5072192;28;20727;-77
2023/01/06 05:10:06;;;;;;;0.40;0.30;;;;;;;9.29;100.00;100466.19;5072493;28;20249;-77
2023/01/06 05:12:32;;;;;;;0.43;0.43;;;;;;;9.33;100.00;100459.00;5072051;28;20504;-76
2023/01/06 05:14:57;;;;;;;0.30;0.20;;;;;;;9.34;100.00;100445.06;5072335;28;20688;-77
2023/01/06 05:17:23;;;;;;;0.17;0.17;;;;;;;9.34;100.00;100450.53;5072205;28;20178;-77
2023/01/06 05:19:48;;;;;;;0.17;0.17;;;;;;;9.33;100.00;100448.09;5071618;28;20178;-75
2023/01/06 05:22:14;;;;;;;0.27;0.20;;;;;;;9.34;100.00;100453.25;5072130;28;20224;-77
2023/01/06 05:24:39;;;;;;;1.70;0.47;;;;;;;9.39;100.00;100458.59;5071840;28;20178;-77
2023/01/06 05:27:05;;;;;;;0.10;0.10;;;;;;;9.39;100.00;100457.78;5071960;28;20206;-77
2023/01/06 05:29:30;;;;;;;0.30;0.30;;;;;;;9.36;100.00;100445.56;5071998;28;20171;-77
2023/01/06 05:31:55;;;;;;;0.10;0.10;;;;;;;9.34;100.00;100441.53;5072025;28;20170;-78
2023/01/06 05:34:21;;;;;;;0.37;0.20;;;;;;;9.33;100.00;100442.66;5071585;28;20699;-76
2023/01/06 05:36:46;;;;;;;1.07;0.57;;;;;;;9.35;100.00;100438.50;5071829;28;20190;-77
2023/01/06 05:39:11;;;;;;;0.30;0.30;;;;;;;9.36;100.00;100437.41;5071797;28;20640;-77
2023/01/06 05:41:37;;;;;;;0.90;0.23;;;;;;;9.40;100.00;100437.59;5071970;28;20600;-77
2023/01/06 05:44:02;;;;;;;0.10;0.10;;;;;;;9.42;100.00;100436.19;5071802;28;20220;-78
2023/01/06 05:46:27;;;;;;;0.43;0.37;;;;;;;9.41;100.00;100437.31;5071572;28;20206;-76
2023/01/06 05:48:53;;;;;;;0.30;0.20;;;;;;;9.38;100.00;100448.81;5071602;28;20623;-77
2023/01/06 05:51:18;;;;;;;0.10;0.10;;;;;;;9.43;100.00;100440.53;5071234;28;20213;-75
2023/01/06 05:53:46;;;;;;;3.73;0.83;;;;;;;9.43;100.00;100439.75;5071229;28;20171;-77
2023/01/06 05:56:17;;;;;;;0.53;0.43;;;;;;;9.43;100.00;100428.84;5071489;28;20185;-76
2023/01/06 05:58:50;;;;;;;0.20;0.20;;;;;;;9.44;100.00;100431.25;5071361;28;20573;-76
2023/01/06 06:01:27;;;;;;;0.73;0.40;;;;;;;9.53;100.00;100436.78;5071442;28;20232;-77
2023/01/06 06:03:53;;;;;;;1.13;0.33;;;;;;;9.49;100.00;100439.31;5070977;28;20588;-76
2023/01/06 06:06:20;;;;;;;0.20;0.20;;;;;;;9.52;100.00;100446.88;5071174;28;20206;-76
2023/01/06 06:08:46;;;;;;;0.27;0.07;;;;;;;9.49;100.00;100446.69;5071243;28;20177;-77
2023/01/06 06:11:13;;;;;;;0.70;0.10;;;;;;;9.52;100.00;100437.91;5071231;28;20171;-76
2023/01/06 06:13:50;;;;;;;0.50;0.50;;;;;;;9.55;100.00;100448.22;5070902;28;20175;-76
2023/01/06 06:16:17;;;;;;;0.00;0.00;;;;;;;9.51;100.00;100439.81;5070964;28;20210;-77
2023/01/06 06:18:43;;;;;;;0.20;0.20;;;;;;;9.57;100.00;100426.09;5070744;28;20630;-77
2023/01/06 06:21:14;;;;;;;0.00;0.00;;;;;;;9.52;100.00;100422.34;5070850;28;20190;-77
2023/01/06 06:23:40;;;;;;;0.00;0.00;;;;;;;9.56;100.00;100441.66;5070769;28;20219;-77
2023/01/06 06:26:05;;;;;;;0.10;0.10;;;;;;;9.58;100.00;100435.88;5070779;28;20198;-77
2023/01/06 06:28:32;;;;;;;0.00;0.00;;;;;;;9.50;100.00;100427.28;5070952;28;20562;-77
2023/01/06 06:31:09;;;;;;;0.00;0.00;;;;;;;9.50;100.00;100416.38;5070237;28;20170;-76
2023/01/06 06:33:35;;;;;;;0.00;0.00;;;;;;;9.49;100.00;100413.97;5070608;28;20182;-77
2023/01/06 06:36:02;;;;;;;0.00;0.00;;;;;;;9.53;100.00;100423.94;5070749;28;20251;-77
2023/01/06 06:38:27;;;;;;;0.00;0.00;;;;;;;9.47;100.00;100422.44;5070759;28;20656;-77
2023/01/06 06:40:53;;;;;;;0.00;0.00;;;;;;;9.48;100.00;100415.88;5070904;28;20179;-77
2023/01/06 06:43:18;;;;;;;0.00;0.00;;;;;;;9.50;100.00;100416.38;5070464;28;20170;-76
2023/01/06 06:45:45;;;;;;;0.00;0.00;;;;;;;9.48;100.00;100407.72;5070351;28;20173;-78
2023/01/06 06:48:10;;;;;;;0.00;0.00;;;;;;;9.58;100.00;100403.97;5070658;28;20198;-77
2023/01/06 06:50:35;;;;;;;0.00;0.00;;;;;;;9.54;100.00;100403.75;5070506;28;20206;-77
2023/01/06 06:53:01;;;;;;;0.00;0.00;;;;;;;9.57;100.00;100409.72;5070734;28;20262;-76
2023/01/06 06:55:26;;;;;;;0.00;0.00;;;;;;;9.57;100.00;100407.00;5071085;28;20179;-77
2023/01/06 06:57:51;;;;;;;0.00;0.00;;;;;;;9.65;99.97;100400.81;5070575;28;20221;-76
2023/01/06 07:00:17;;;;;;;0.00;0.00;;;;;;;9.49;99.96;100392.16;5070463;28;20170;-77
2023/01/06 07:02:43;;;;;;;0.00;0.00;;;;;;;9.60;99.31;100390.81;5070143;28;20214;-77
2023/01/06 07:05:08;;;;;;;0.00;0.00;;;;;;;9.50;99.28;100385.59;5070959;28;20190;-77
2023/01/06 07:07:34;;;;;;;0.00;0.00;;;;;;;9.39;99.55;100387.72;5070983;28;20206;-76
2023/01/06 07:09:59;;;;;;;0.10;0.10;;;;;;;9.37;100.00;100392.66;5070502;28;20179;-77
2023/01/06 07:12:24;;;;;;;0.20;0.00;;;;;;;9.27;100.00;100392.09;5070902;28;20239;-76
2023/01/06 07:14:49;;;;;;;0.00;0.00;;;;;;;9.39;99.61;100393.16;5070541;28;20213;-76
2023/01/06 07:17:15;;;;;;;0.00;0.00;;;;;;;9.35;98.68;100386.72;5070274;28;20251;-77
2023/01/06 07:19:40;;;;;;;0.00;0.00;;;;;;;9.31;98.11;100380.25;5069550;28;20182;-77
2023/01/06 07:22:05;;;;;;;0.00;0.00;;;;;;;9.28;98.65;100374.63;5070334;28;20213;-77
2023/01/06 07:24:31;;;;;;;0.00;0.00;;;;;;;9.23;99.06;100373.59;5070144;28;20679;-76
2023/01/06 07:26:56;;;;;;;0.00;0.00;;;;;;;9.28;98.23;100378.16;5070137;28;20291;-77
2023/01/06 07:29:21;;;;;;;0.53;0.50;;;;;;;9.46;96.48;100369.03;5070047;28;20174;-76
2023/01/06 07:31:46;;;;;;;0.00;0.00;;;;;;;9.45;95.54;100363.88;5070220;28;20292;-77
2023/01/06 07:34:12;;;;;;;0.40;0.40;;;;;;;9.66;93.04;100366.97;5069863;28;20178;-75
2023/01/06 07:36:37;;;;;;;0.07;0.07;;;;;;;9.71;92.03;100359.47;5069970;28;20190;-75
2023/01/06 07:39:02;;;;;;;0.83;0.30;;;;;;;9.65;91.99;100363.41;5069501;28;20213;-76
2023/01/06 07:41:30;;;;;;;0.00;0.00;;;;;;;9.65;91.82;100384.44;5069915;28;20186;-75
2023/01/06 07:43:55;;;;;;;3.40;0.27;;;;;;;9.68;91.76;100375.63;5072554;28;20653;-76
2023/01/06 07:46:20;;;;;;;0.60;0.60;;;;;;;9.67;91.69;100374.84;5073947;28;20198;-76
2023/01/06 07:48:45;;;;;;;0.77;0.43;;;;;;;9.74;90.44;100377.97;5073926;28;20212;-75
2023/01/06 07:51:11;;;;;;;6.33;0.67;;;;;;;9.78;89.87;100368.03;5074241;28;20171;-75
2023/01/06 07:53:36;;;;;;;1.07;0.90;;;;;;;9.76;89.77;100370.28;5073604;28;20265;-74
2023/01/06 07:56:01;;;;;;;0.83;0.83;;;;;;;9.77;89.60;100371.88;5073816;28;20634;-75
2023/01/06 07:58:27;;;;;;;2.63;2.00;;;;;;;9.78;89.29;100365.31;5074090;28;20177;-77
2023/01/06 08:00:52;;;;;;;0.70;0.67;;;;;;;9.76;89.73;100378.47;5073690;28;20693;-78
2023/01/06 08:03:17;;;;;;;0.37;0.30;;;;;;;9.78;89.66;100375.41;5073886;28;20204;-78
2023/01/06 08:05:43;;;;;;;0.47;0.37;;;;;;;9.83;88.53;100383.47;5073540;28;20621;-76
2023/01/06 08:08:10;;;;;;;0.30;0.30;;;;;;;9.87;88.22;100380.97;5073527;28;20221;-79
2023/01/06 08:10:41;;;;;;;0.33;0.33;;;;;;;9.89;88.11;100386.91;5073419;28;20217;-76
2023/01/06 08:13:07;;;;;;;0.20;0.20;;;;;;;9.88;87.67;100379.84;5073227;28;20177;-78
2023/01/06 08:15:32;;;;;;;0.83;0.60;;;;;;;9.89;87.54;100381.47;5073454;28;20548;-78
2023/01/06 08:17:57;;;;;;;0.87;0.40;;;;;;;9.90;87.09;100372.97;5073310;28;20547;-77
2023/01/06 08:20:23;;;;;;;0.20;0.20;;;;;;;9.92;87.08;100373.44;5073360;28;20175;-78
2023/01/06 08:22:48;;;;;;;1.77;0.37;;;;;;;9.94;87.28;100382.13;5073135;28;20187;-78
2023/01/06 08:25:13;;;;;;;0.80;0.80;;;;;;;9.91;87.33;100380.03;5073330;28;20179;-78
2023/01/06 08:27:39;;;;;;;0.67;0.67;;;;;;;9.91;87.51;100390.94;5072995;28;20202;-78
2023/01/06 08:30:05;;;;;;;4.10;0.90;;;;;;;9.92;87.69;100395.28;5073124;28;20175;-75
2023/01/06 08:32:30;;;;;;;0.47;0.47;;;;;;;9.89;87.84;100392.38;5072783;28;20190;-74
2023/01/06 08:34:56;;;;;;;0.10;0.10;;;;;;;9.87;87.99;100384.50;5072998;28;20174;-75
2023/01/06 08:37:21;;;;;;;0.80;0.70;;;;;;;9.90;88.24;100394.78;5073208;28;20239;-77
2023/01/06 08:39:47;;;;;;;0.20;0.20;;;;;;;9.96;87.58;100392.75;5072956;28;20175;-76
2023/01/06 08:42:12;;;;;;;1.50;0.77;;;;;;;9.96;87.85;100379.91;5072767;28;20276;-76
2023/01/06 08:44:38;;;;;;;0.50;0.50;;;;;;;10.00;87.60;100383.66;5072760;28;20209;-76
2023/01/06 08:47:03;;;;;;;1.17;0.63;;;;;;;10.00;87.70;100377.38;5072631;28;20217;-76
2023/01/06 08:49:29;;;;;;;1.13;0.17;;;;;;;10.03;87.42;100396.66;5072726;28;20648;-78
2023/01/06 08:51:54;;;;;;;0.67;0.47;;;;;;;10.06;87.33;100393.31;5072658;28;20224;-80
2023/01/06 08:54:20;;;;;;;0.20;0.20;;;;;;;10.06;87.25;100387.06;5071692;28;20646;-78
2023/01/06 08:56:45;;;;;;;4.07;3.67;;;;;;;10.06;88.02;100390.59;5072652;28;20531;-83
2023/01/06 08:59:15;;;;;;;6.23;2.03;;;;;;;10.09;87.77;100395.41;5072644;28;20174;-78
2023/01/06 09:01:42;;;;;;;0.23;0.23;;;;;;;10.10;88.45;100391.56;5072556;28;20186;-87
2023/01/06 09:04:09;;;;;;;0.40;0.40;;;;;;;10.10;88.15;100390.78;5072377;28;20209;-76
2023/01/06 09:06:35;;;;;;;0.10;0.10;;;;;;;10.10;88.41;100397.03;5072331;28;20206;-75
2023/01/06 09:09:02;;;;;;;0.40;0.37;;;;;;;10.14;89.13;100380.88;5072448;28;20587;-74
2023/01/06 09:11:27;;;;;;;0.10;0.10;;;;;;;10.13;89.13;100371.88;5072294;28;20215;-76
2023/01/06 09:13:53;;;;;;;0.30;0.30;;;;;;;10.17;88.64;100382.16;5072204;28;20202;-74
2023/01/06 09:16:19;;;;;;;0.33;0.33;;;;;;;10.22;89.41;100385.59;5072201;28;20694;-76
2023/01/06 09:18:48;;;;;;;0.67;0.40;;;;;;;10.24;89.20;100382.56;5072342;28;20521;-76
2023/01/06 09:21:18;;;;;;;0.10;0.10;;;;;;;10.28;88.51;100384.38;5072235;28;20178;-78
2023/01/06 09:23:43;;;;;;;3.20;0.53;;;;;;;10.29;88.82;100375.06;5072005;28;20171;-78
2023/01/06 09:26:09;;;;;;;3.93;0.63;;;;;;;10.30;88.75;100384.88;5071742;28;20311;-77
2023/01/06 09:28:34;;;;;;;1.43;0.60;;;;;;;10.31;88.63;100383.75;5072220;28;20260;-78
2023/01/06 09:31:00;;;;;;;1.50;1.17;;;;;;;10.29;88.42;100380.53;5072051;28;20171;-77
2023/01/06 09:33:25;;;;;;;0.37;0.23;;;;;;;10.30;88.38;100392.25;5071730;28;20181;-77
2023/01/06 09:35:51;;;;;;;0.30;0.30;;;;;;;10.28;88.59;100387.09;5071980;28;20181;-78
2023/01/06 09:38:16;;;;;;;0.10;0.10;;;;;;;10.27;89.50;100399.16;5071761;28;20178;-77
2023/01/06 09:40:59;;;;;;;0.00;0.00;;;;;;;10.23;89.77;100398.13;5071570;28;20585;-78
2023/01/06 09:43:34;;;;;;;0.13;0.13;;;;;;;10.20;89.96;100390.53;5070837;28;20212;-78
2023/01/06 09:46:03;;;;;;;1.53;0.70;;;;;;;10.18;90.10;100400.97;5070117;28;20636;-78
2023/01/06 09:48:38;;;;;;;4.50;0.50;;;;;;;10.18;90.95;100411.06;5069205;28;20185;-77
2023/01/06 09:51:05;;;;;;;2.43;0.37;;;;;;;10.14;91.82;100400.78;5070055;28;20193;-77
2023/01/06 09:53:36;;;;;;;1.13;0.17;;;;;;;10.09;92.49;100400.06;5069461;28;20189;-78
2023/01/06 09:56:05;;;;;;;0.43;0.33;;;;;;;10.04;93.76;100409.19;5069774;28;20167;-78
2023/01/06 09:58:57;;;;;;;0.40;0.40;;;;;;;10.00;94.91;100416.41;5069926;28;20782;-79
2023/01/06 10:01:29;;;;;;;2.93;0.20;;;;;;;9.94;96.53;100401.25;5071575;28;20249;-80
2023/01/06 10:03:56;;;;;;;1.20;0.60;;;;;;;9.94;97.34;100405.88;5071192;28;20611;-80
2023/01/06 10:06:43;;;;;;;0.33;0.33;;;;;;;9.90;98.20;100402.16;5071102;28;20225;-77
2023/01/06 10:09:21;;;;;;;0.20;0.20;;;;;;;9.88;98.82;100391.56;5070125;28;20537;-79
2023/01/06 10:12:12;;;;;;;0.10;0.10;;;;;;;9.87;99.26;100389.94;5071191;28;20261;-79
2023/01/06 10:14:38;;;;;;;0.87;0.60;;;;;;;9.82;100.00;100393.59;5039968;28;20682;-78
2023/01/06 10:17:21;;;;;;;0.30;0.30;;;;;;;9.78;100.00;100380.88;5071558;28;20228;-78
2023/01/06 10:20:06;;;;;;;0.07;0.07;;;;;;;9.73;100.00;100387.25;5071454;28;20528;-79
2023/01/06 10:22:51;;;;;;;6.23;1.43;;;;;;;9.69;100.00;100382.72;5071108;28;20174;-76
2023/01/06 10:25:26;;;;;;;0.30;0.17;;;;;;;9.67;100.00;100384.94;5071377;28;20261;-77
2023/01/06 10:28:10;;;;;;;0.90;0.40;;;;;;;9.67;100.00;100368.56;5071326;28;20735;-78
2023/01/06 10:30:44;;;;;;;0.23;0.23;;;;;;;9.69;100.00;100379.97;5071214;28;20166;-79
2023/01/06 10:33:21;;;;;;;0.40;0.30;;;;;;;9.71;100.00;100380.50;5070940;28;20182;-77
2023/01/06 10:35:47;;;;;;;0.97;0.47;;;;;;;9.69;100.00;100393.63;5071155;28;20652;-79
2023/01/06 10:38:13;;;;;;;0.30;0.30;;;;;;;9.68;100.00;100384.63;5071174;28;20179;-78
2023/01/06 10:40:38;;;;;;;0.30;0.30;;;;;;;9.67;100.00;100380.28;5071032;28;20573;-78
2023/01/06 10:43:11;;;;;;;1.07;0.50;;;;;;;9.67;100.00;100365.84;5070978;28;20186;-78
2023/01/06 10:45:44;;;;;;;6.20;0.73;;;;;;;9.70;100.00;100363.34;5071001;28;20189;-79
2023/01/06 10:48:14;;;;;;;1.23;0.50;;;;;;;9.72;100.00;100365.75;5070933;28;20563;-78
2023/01/06 10:50:40;;;;;;;0.20;0.20;;;;;;;9.71;100.00;100369.59;5071027;28;20257;-78
2023/01/06 10:53:05;;;;;;;0.83;0.50;;;;;;;9.68;100.00;100381.91;5070851;28;20278;-78
2023/01/06 10:55:38;;;;;;;0.60;0.60;;;;;;;9.62;100.00;100374.16;5070994;28;20178;-77
2023/01/06 10:58:24;;;;;;;0.57;0.43;;;;;;;9.59;100.00;100366.59;5070946;28;20269;-77
2023/01/06 11:00:58;;;;;;;0.40;0.30;;;;;;;9.58;100.00;100367.69;5070989;28;20632;-73
2023/01/06 11:03:25;;;;;;;0.80;0.40;;;;;;;9.60;100.00;100379.09;5070715;28;20186;-73
2023/01/06 11:06:07;;;;;;;0.83;0.50;;;;;;;9.63;100.00;100373.03;5070685;28;20193;-73
2023/01/06 11:08:34;;;;;;;0.50;0.50;;;;;;;9.56;100.00;100373.47;5070918;28;20264;-73
2023/01/06 11:10:59;;;;;;;0.60;0.60;;;;;;;9.44;100.00;100376.72;5070811;28;20182;-73
2023/01/06 11:13:32;;;;;;;0.43;0.43;;;;;;;9.36;100.00;100388.31;5070836;28;20170;-74
2023/01/06 11:16:02;;;;;;;1.17;1.00;;;;;;;9.29;100.00;100373.50;5070862;28;20217;-73
2023/01/06 11:18:30;;;;;;;5.33;0.93;;;;;;;9.27;100.00;100367.56;5070236;28;20598;-73
2023/01/06 11:21:15;;;;;;;1.70;1.07;;;;;;;9.25;100.00;100367.81;5070735;28;20661;-73
2023/01/06 11:23:43;;;;;;;0.60;0.60;;;;;;;9.29;100.00;100363.41;5070736;28;20179;-73
2023/01/06 11:26:11;;;;;;;1.13;0.90;;;;;;;9.37;100.00;100359.13;5070445;28;20182;-73
2023/01/06 11:28:37;;;;;;;0.30;0.30;;;;;;;9.43;100.00;100364.19;5070728;28;20213;-73
2023/01/06 11:31:07;;;;;;;0.57;0.57;;;;;;;9.45;100.00;100370.16;5070627;28;20170;-73
2023/01/06 11:33:45;;;;;;;0.83;0.70;;;;;;;9.44;100.00;100382.16;5070435;28;20183;-73
2023/01/06 11:36:13;;;;;;;1.33;0.83;;;;;;;9.39;100.00;100376.00;5070648;28;20166;-73
2023/01/06 11:38:48;;;;;;;1.80;1.10;;;;;;;9.30;100.00;100377.84;5070571;28;20182;-73
2023/01/06 11:41:27;;;;;;;0.77;0.40;;;;;;;9.23;100.00;100368.13;5070495;28;20265;-73
2023/01/06 11:44:00;;;;;;;1.10;1.07;;;;;;;9.22;100.00;100373.91;5070312;28;20198;-73